createdAt,value
2022-07-29T00:01:19.185Z,14.27
2022-07-29T00:03:46.814Z,14.25
2022-07-29T00:06:13.850Z,14.24
2022-07-29T00:08:40.761Z,14.25
2022-07-29T00:11:07.640Z,14.28
2022-07-29T00:13:34.917Z,14.29
2022-07-29T00:16:04.540Z,14.29
2022-07-29T00:18:32.953Z,14.28
2022-07-29T00:21:00.336Z,14.26
2022-07-29T00:23:27.203Z,14.23
2022-07-29T00:25:54.075Z,14.21
2022-07-29T00:28:20.993Z,14.20
2022-07-29T00:30:47.906Z,14.20
2022-07-29T00:33:14.828Z,14.22
2022-07-29T00:35:44.938Z,14.25
2022-07-29T00:38:18.312Z,14.27
2022-07-29T00:40:45.810Z,14.28
2022-07-29T00:43:14.810Z,14.28
2022-07-29T00:45:43.031Z,14.27
2022-07-29T00:48:10.649Z,14.23
2022-07-29T00:50:38.338Z,14.21
2022-07-29T00:53:07.902Z,14.18
2022-07-29T00:55:35.557Z,14.17
2022-07-29T00:58:02.718Z,14.16
2022-07-29T01:00:30.541Z,14.14
2022-07-29T01:02:57.549Z,14.12
2022-07-29T01:05:50.788Z,14.10
2022-07-29T01:08:16.432Z,14.06
2022-07-29T01:10:45.622Z,14.02
2022-07-29T01:13:14.844Z,13.97
2022-07-29T01:15:48.833Z,13.93
2022-07-29T01:18:23.764Z,13.89
2022-07-29T01:21:14.306Z,13.90
2022-07-29T01:24:01.093Z,13.90
2022-07-29T01:26:30.733Z,13.92
2022-07-29T01:29:18.718Z,13.93
2022-07-29T01:31:59.116Z,13.94
2022-07-29T01:34:40.725Z,13.94
2022-07-29T01:37:19.748Z,13.95
2022-07-29T01:39:50.513Z,13.94
2022-07-29T01:42:36.737Z,13.94
2022-07-29T01:45:09.652Z,13.98
2022-07-29T01:47:44.574Z,14.03
2022-07-29T01:50:14.102Z,14.11
2022-07-29T01:52:47.787Z,14.16
2022-07-29T01:55:16.659Z,14.21
2022-07-29T01:57:45.791Z,14.24
2022-07-29T02:00:14.034Z,14.28
2022-07-29T02:02:45.374Z,14.30
2022-07-29T02:05:15.612Z,14.33
2022-07-29T02:07:44.434Z,14.33
2022-07-29T02:10:13.781Z,14.34
2022-07-29T02:12:43.607Z,14.35
2022-07-29T02:15:18.222Z,14.36
2022-07-29T02:17:51.172Z,14.40
2022-07-29T02:20:18.152Z,14.45
2022-07-29T02:22:47.660Z,14.51
2022-07-29T02:25:16.917Z,14.54
2022-07-29T02:27:45.567Z,14.57
2022-07-29T02:30:13.955Z,14.59
2022-07-29T02:32:43.342Z,14.59
2022-07-29T02:35:13.458Z,14.60
2022-07-29T02:37:41.191Z,14.60
2022-07-29T02:40:12.183Z,14.60
2022-07-29T02:42:42.293Z,14.61
2022-07-29T02:45:10.698Z,14.62
2022-07-29T02:47:44.859Z,14.62
2022-07-29T02:50:19.143Z,14.62
2022-07-29T02:52:53.610Z,14.60
2022-07-29T02:55:42.559Z,14.61
2022-07-29T02:58:14.660Z,14.65
2022-07-29T03:00:42.330Z,14.71
2022-07-29T03:03:14.251Z,14.78
2022-07-29T03:05:42.033Z,14.85
2022-07-29T03:08:12.354Z,14.90
2022-07-29T03:10:43.990Z,14.96
2022-07-29T03:13:11.639Z,15.00
2022-07-29T03:15:39.238Z,15.02
2022-07-29T03:18:07.758Z,15.07
2022-07-29T03:20:34.966Z,15.09
2022-07-29T03:23:01.842Z,15.11
2022-07-29T03:25:28.714Z,15.13
2022-07-29T03:27:55.595Z,15.15
2022-07-29T03:30:22.601Z,15.17
2022-07-29T03:32:52.264Z,15.20
2022-07-29T03:35:35.333Z,15.23
2022-07-29T03:38:02.396Z,15.27
2022-07-29T03:40:39.354Z,15.33
2022-07-29T03:43:09.693Z,15.44
2022-07-29T03:45:37.435Z,15.53
2022-07-29T03:48:09.653Z,15.64
2022-07-29T03:50:37.723Z,15.74
2022-07-29T03:53:05.134Z,15.82
2022-07-29T03:55:38.754Z,15.90
2022-07-29T03:58:07.748Z,15.96
2022-07-29T04:00:36.100Z,16.03
2022-07-29T04:03:05.173Z,16.08
2022-07-29T04:05:37.946Z,16.14
2022-07-29T04:08:05.049Z,16.19
2022-07-29T04:10:34.192Z,16.25
2022-07-29T04:13:02.773Z,16.30
2022-07-29T04:15:31.643Z,16.36
2022-07-29T04:17:59.930Z,16.44
2022-07-29T04:20:26.922Z,16.50
2022-07-29T04:22:53.851Z,16.57
2022-07-29T04:25:21.041Z,16.65
2022-07-29T04:28:04.268Z,16.76
2022-07-29T04:30:32.546Z,16.87
2022-07-29T04:33:01.907Z,17.01
2022-07-29T04:35:30.493Z,17.16
2022-07-29T04:38:06.857Z,17.33
2022-07-29T04:40:34.885Z,17.49
2022-07-29T04:43:05.728Z,17.66
2022-07-29T04:45:33.011Z,17.82
2022-07-29T04:47:59.866Z,18.00
2022-07-29T04:50:26.671Z,18.23
2022-07-29T04:52:54.285Z,18.48
2022-07-29T04:55:21.164Z,18.75
2022-07-29T04:57:47.936Z,18.95
2022-07-29T05:00:16.010Z,19.19
2022-07-29T05:02:42.882Z,19.51
2022-07-29T05:05:10.010Z,19.90
2022-07-29T05:07:36.922Z,20.32
2022-07-29T05:10:04.737Z,20.57
2022-07-29T05:12:31.546Z,20.74
2022-07-29T05:14:58.386Z,20.87
2022-07-29T05:17:25.183Z,20.99
2022-07-29T05:19:52.497Z,21.11
2022-07-29T05:22:20.403Z,21.16
2022-07-29T05:24:47.750Z,21.19
2022-07-29T05:27:14.847Z,21.21
2022-07-29T05:29:43.737Z,21.24
2022-07-29T05:32:12.954Z,21.23
2022-07-29T05:34:50.153Z,21.18
2022-07-29T05:37:20.221Z,21.09
2022-07-29T05:39:50.563Z,21.11
2022-07-29T05:42:24.525Z,21.21
2022-07-29T05:44:51.869Z,21.35
2022-07-29T05:47:18.808Z,21.50
2022-07-29T05:49:46.374Z,21.65
2022-07-29T05:52:14.371Z,21.82
2022-07-29T05:54:41.739Z,22.01
2022-07-29T05:57:09.103Z,22.22
2022-07-29T05:59:38.158Z,22.46
2022-07-29T06:02:07.131Z,22.66
2022-07-29T06:04:34.774Z,22.78
2022-07-29T06:07:02.907Z,22.99
2022-07-29T06:09:29.980Z,23.16
2022-07-29T06:11:57.260Z,23.34
2022-07-29T06:14:24.053Z,23.53
2022-07-29T06:16:51.003Z,23.68
2022-07-29T06:19:17.916Z,23.82
2022-07-29T06:21:45.454Z,23.99
2022-07-29T06:24:13.997Z,24.17
2022-07-29T06:26:42.046Z,24.34
2022-07-29T06:29:11.694Z,24.55
2022-07-29T06:31:39.211Z,24.71
2022-07-29T06:34:06.147Z,24.89
2022-07-29T06:36:36.749Z,25.13
2022-07-29T06:39:07.329Z,25.37
2022-07-29T06:41:35.473Z,25.53
2022-07-29T06:44:07.256Z,25.75
2022-07-29T06:46:34.102Z,25.96
2022-07-29T06:49:02.788Z,26.20
2022-07-29T06:51:30.039Z,26.39
2022-07-29T06:54:02.161Z,26.49
2022-07-29T06:56:31.189Z,26.62
2022-07-29T06:58:58.397Z,26.85
2022-07-29T07:01:26.346Z,27.01
2022-07-29T07:03:53.246Z,27.13
2022-07-29T07:06:20.048Z,27.21
2022-07-29T07:08:46.935Z,27.23
2022-07-29T07:11:13.764Z,27.26
2022-07-29T07:13:40.608Z,27.28
2022-07-29T07:16:07.390Z,27.32
2022-07-29T07:18:34.246Z,27.41
2022-07-29T07:21:01.233Z,27.43
2022-07-29T07:23:28.110Z,27.39
2022-07-29T07:25:54.979Z,27.42
2022-07-29T07:28:24.475Z,27.54
2022-07-29T07:30:53.052Z,27.72
2022-07-29T07:33:20.648Z,27.96
2022-07-29T07:35:47.994Z,28.12
2022-07-29T07:38:15.011Z,28.39
2022-07-29T07:40:42.531Z,28.49
2022-07-29T07:43:09.445Z,28.40
2022-07-29T07:45:38.568Z,28.12
2022-07-29T07:48:06.087Z,27.94
2022-07-29T07:50:33.001Z,27.71
2022-07-29T07:53:00.661Z,27.67
2022-07-29T07:55:27.737Z,27.87
2022-07-29T07:57:55.772Z,27.92
2022-07-29T08:00:23.800Z,27.93
2022-07-29T08:02:51.828Z,28.18
2022-07-29T08:05:19.400Z,28.44
2022-07-29T08:07:47.619Z,28.65
2022-07-29T08:10:36.628Z,28.95
2022-07-29T08:13:06.260Z,29.36
2022-07-29T08:15:34.040Z,29.79
2022-07-29T08:18:05.230Z,30.28
2022-07-29T08:20:36.864Z,30.67
2022-07-29T08:23:05.751Z,30.97
2022-07-29T08:25:34.704Z,31.26
2022-07-29T08:28:05.985Z,31.67
2022-07-29T08:30:33.522Z,31.97
2022-07-29T08:33:00.770Z,32.27
2022-07-29T08:35:31.018Z,32.20
2022-07-29T08:38:00.244Z,32.12
2022-07-29T08:40:32.443Z,32.32
2022-07-29T08:43:06.457Z,32.61
2022-07-29T08:45:48.165Z,32.81
2022-07-29T08:48:19.998Z,33.28
2022-07-29T08:50:49.159Z,33.55
2022-07-29T08:53:17.654Z,33.81
2022-07-29T08:55:46.781Z,33.91
2022-07-29T08:58:15.703Z,34.05
2022-07-29T09:00:46.069Z,34.42
2022-07-29T09:03:16.990Z,34.75
2022-07-29T09:05:48.081Z,34.94
2022-07-29T09:08:16.877Z,35.32
2022-07-29T09:10:44.876Z,35.50
2022-07-29T09:13:11.753Z,35.56
2022-07-29T09:15:38.575Z,35.68
2022-07-29T09:18:05.398Z,35.45
2022-07-29T09:20:48.044Z,35.23
2022-07-29T09:23:24.135Z,35.25
2022-07-29T09:25:51.737Z,35.26
2022-07-29T09:28:19.067Z,35.27
2022-07-29T09:30:54.830Z,35.44
2022-07-29T09:33:23.422Z,35.50
2022-07-29T09:36:07.126Z,35.50
2022-07-29T09:38:36.266Z,35.39
2022-07-29T09:41:06.919Z,35.41
2022-07-29T09:43:35.079Z,35.52
2022-07-29T09:46:17.734Z,35.35
2022-07-29T09:48:45.301Z,35.44
2022-07-29T09:51:24.141Z,35.52
2022-07-29T09:53:55.484Z,35.29
2022-07-29T09:56:40.610Z,35.10
2022-07-29T09:59:09.187Z,34.86
2022-07-29T10:01:37.051Z,34.58
2022-07-29T10:04:04.155Z,34.45
2022-07-29T10:06:30.988Z,34.30
2022-07-29T10:09:13.313Z,34.24
2022-07-29T10:11:49.642Z,34.21
2022-07-29T10:14:17.322Z,34.08
2022-07-29T10:16:44.464Z,33.97
2022-07-29T10:19:11.770Z,33.82
2022-07-29T10:21:40.845Z,33.73
2022-07-29T10:24:15.050Z,33.57
2022-07-29T10:26:43.259Z,33.51
2022-07-29T10:29:10.615Z,33.41
2022-07-29T10:31:56.352Z,33.19
2022-07-29T10:34:46.314Z,33.08
2022-07-29T10:37:20.653Z,32.98
2022-07-29T10:39:58.864Z,32.84
2022-07-29T10:42:34.359Z,32.70
2022-07-29T10:45:04.622Z,32.70
2022-07-29T10:47:31.912Z,32.59
2022-07-29T10:50:01.865Z,32.54
2022-07-29T10:52:55.822Z,32.66
2022-07-29T10:55:43.869Z,32.82
2022-07-29T10:58:13.624Z,32.97
2022-07-29T11:00:40.577Z,33.01
2022-07-29T11:03:10.511Z,32.93
2022-07-29T11:05:55.738Z,32.67
2022-07-29T11:08:26.377Z,32.32
2022-07-29T11:11:22.443Z,31.95
2022-07-29T11:13:57.167Z,31.58
2022-07-29T11:16:25.302Z,31.38
2022-07-29T11:19:16.440Z,31.42
2022-07-29T11:21:55.310Z,31.48
2022-07-29T11:24:32.122Z,31.50
2022-07-29T11:27:18.249Z,31.65
2022-07-29T11:30:03.193Z,31.90
2022-07-29T11:32:40.158Z,32.30
2022-07-29T11:35:38.432Z,32.68
2022-07-29T11:38:23.452Z,33.05
2022-07-29T11:41:23.673Z,33.12
2022-07-29T11:43:53.485Z,33.02
2022-07-29T11:46:53.886Z,32.87
2022-07-29T11:49:32.312Z,32.71
2022-07-29T11:52:03.257Z,32.63
2022-07-29T11:54:38.878Z,32.87
2022-07-29T12:00:12.637Z,33.89
2022-07-29T12:02:48.677Z,34.10
2022-07-29T12:05:22.282Z,34.07
2022-07-29T12:08:08.227Z,34.06
2022-07-29T12:10:42.212Z,34.07
2022-07-29T12:13:10.245Z,34.27
2022-07-29T12:15:47.015Z,34.76
2022-07-29T12:18:16.141Z,35.48
2022-07-29T12:20:46.043Z,36.11
2022-07-29T12:23:13.549Z,36.44
2022-07-29T12:25:49.628Z,36.85
2022-07-29T12:28:26.628Z,36.99
2022-07-29T12:30:54.031Z,36.94
2022-07-29T12:33:23.713Z,36.81
2022-07-29T12:36:17.609Z,36.79
2022-07-29T12:38:45.771Z,36.93
2022-07-29T12:41:13.817Z,37.13
2022-07-29T12:43:53.844Z,37.28
2022-07-29T12:46:21.151Z,37.55
2022-07-29T12:48:56.318Z,37.68
2022-07-29T12:51:40.081Z,37.46
2022-07-29T12:54:12.510Z,37.05
2022-07-29T12:56:44.321Z,37.00
2022-07-29T12:59:14.116Z,37.08
2022-07-29T13:01:40.988Z,37.00
2022-07-29T13:04:08.076Z,36.67
2022-07-29T13:06:36.622Z,36.40
2022-07-29T13:09:05.644Z,36.04
2022-07-29T13:11:36.595Z,35.68
2022-07-29T13:14:06.808Z,35.39
2022-07-29T13:16:34.296Z,35.27
2022-07-29T13:19:11.740Z,35.04
2022-07-29T13:21:40.237Z,34.73
2022-07-29T13:24:08.587Z,34.44
2022-07-29T13:26:35.716Z,34.34
2022-07-29T13:29:02.525Z,34.41
2022-07-29T13:31:29.436Z,34.60
2022-07-29T13:33:57.405Z,34.81
2022-07-29T13:36:24.440Z,34.87
2022-07-29T13:38:51.325Z,35.12
2022-07-29T13:41:18.180Z,35.48
2022-07-29T13:43:44.997Z,35.85
2022-07-29T13:46:11.818Z,36.32
2022-07-29T13:48:38.706Z,36.80
2022-07-29T13:51:05.582Z,37.19
2022-07-29T13:53:32.473Z,37.42
2022-07-29T13:55:59.552Z,37.74
2022-07-29T13:58:26.604Z,37.81
2022-07-29T14:00:53.512Z,37.49
2022-07-29T14:03:23.641Z,37.05
2022-07-29T14:05:50.523Z,36.93
2022-07-29T14:08:17.333Z,36.75
2022-07-29T14:10:44.251Z,36.51
2022-07-29T14:13:25.148Z,36.33
2022-07-29T14:15:54.032Z,36.03
2022-07-29T14:18:20.908Z,35.84
2022-07-29T14:20:47.827Z,35.64
2022-07-29T14:23:16.267Z,35.35
2022-07-29T14:25:44.564Z,34.97
2022-07-29T14:28:12.811Z,34.45
2022-07-29T14:30:41.682Z,33.90
2022-07-29T14:33:09.174Z,33.43
2022-07-29T14:35:35.964Z,33.11
2022-07-29T14:38:02.750Z,32.85
2022-07-29T14:40:29.584Z,32.56
2022-07-29T14:42:56.599Z,32.22
2022-07-29T14:45:24.051Z,31.85
2022-07-29T14:47:53.417Z,31.63
2022-07-29T14:50:31.626Z,31.28
2022-07-29T14:53:00.218Z,30.95
2022-07-29T14:55:27.704Z,30.75
2022-07-29T14:58:00.722Z,30.65
2022-07-29T15:00:34.666Z,30.62
2022-07-29T15:03:02.878Z,30.58
2022-07-29T15:05:31.476Z,30.50
2022-07-29T15:07:59.922Z,30.41
2022-07-29T15:10:42.346Z,30.25
2022-07-29T15:13:09.650Z,30.17
2022-07-29T15:15:36.606Z,30.16
2022-07-29T15:18:03.983Z,30.14
2022-07-29T15:20:30.964Z,30.11
2022-07-29T15:22:57.799Z,30.08
2022-07-29T15:25:25.673Z,30.00
2022-07-29T15:27:59.189Z,29.92
2022-07-29T15:30:33.371Z,29.83
2022-07-29T15:33:02.682Z,29.73
2022-07-29T15:35:29.741Z,29.62
2022-07-29T15:37:56.554Z,29.48
2022-07-29T15:40:23.406Z,29.32
2022-07-29T15:42:50.606Z,29.15
2022-07-29T15:45:17.425Z,28.99
2022-07-29T15:47:44.662Z,28.83
2022-07-29T15:50:15.960Z,28.66
2022-07-29T15:52:43.766Z,28.55
2022-07-29T15:55:10.787Z,28.44
2022-07-29T15:57:41.020Z,28.33
2022-07-29T16:00:08.747Z,28.21
2022-07-29T16:02:35.920Z,28.11
2022-07-29T16:05:02.708Z,28.00
2022-07-29T16:07:31.381Z,27.89
2022-07-29T16:09:59.434Z,27.80
2022-07-29T16:12:26.466Z,27.71
2022-07-29T16:14:53.380Z,27.63
2022-07-29T16:17:20.354Z,27.55
2022-07-29T16:19:47.472Z,27.50
2022-07-29T16:22:14.609Z,27.44
2022-07-29T16:24:41.806Z,27.38
2022-07-29T16:27:09.320Z,27.32
2022-07-29T16:29:37.426Z,27.27
2022-07-29T16:32:06.332Z,27.21
2022-07-29T16:34:33.726Z,27.13
2022-07-29T16:37:00.942Z,27.03
2022-07-29T16:39:27.979Z,26.86
2022-07-29T16:41:58.312Z,26.61
2022-07-29T16:44:27.513Z,26.36
2022-07-29T16:46:56.081Z,26.14
2022-07-29T16:49:25.962Z,25.90
2022-07-29T16:51:53.931Z,25.67
2022-07-29T16:54:21.356Z,25.43
2022-07-29T16:56:48.191Z,25.21
2022-07-29T16:59:15.034Z,24.99
2022-07-29T17:01:41.934Z,24.79
2022-07-29T17:04:09.351Z,24.60
2022-07-29T17:06:39.074Z,24.40
2022-07-29T17:09:07.739Z,24.19
2022-07-29T17:11:53.593Z,24.01
2022-07-29T17:14:25.625Z,23.84
2022-07-29T17:17:00.574Z,23.76
2022-07-29T17:19:31.918Z,23.69
2022-07-29T17:22:08.958Z,23.64
2022-07-29T17:24:38.923Z,23.62
2022-07-29T17:27:07.146Z,23.59
2022-07-29T17:29:35.419Z,23.56
2022-07-29T17:32:02.304Z,23.55
2022-07-29T17:34:29.197Z,23.53
2022-07-29T17:36:56.724Z,23.50
2022-07-29T17:39:24.284Z,23.46
2022-07-29T17:41:51.106Z,23.41
2022-07-29T17:44:18.459Z,23.38
2022-07-29T17:46:45.419Z,23.36
2022-07-29T17:49:12.415Z,23.33
2022-07-29T17:51:39.328Z,23.27
2022-07-29T17:54:06.174Z,23.24
2022-07-29T17:56:33.122Z,23.21
2022-07-29T17:59:01.632Z,23.17
2022-07-29T18:01:28.898Z,23.13
2022-07-29T18:03:59.787Z,23.08
2022-07-29T18:06:27.159Z,23.06
2022-07-29T18:08:55.348Z,23.05
2022-07-29T18:11:23.009Z,23.06
2022-07-29T18:13:49.814Z,23.06
2022-07-29T18:16:16.722Z,23.07
2022-07-29T18:18:45.056Z,23.07
2022-07-29T18:21:12.459Z,23.04
2022-07-29T18:23:39.368Z,23.01
2022-07-29T18:26:06.215Z,22.98
2022-07-29T18:28:33.308Z,22.95
2022-07-29T18:31:01.440Z,22.90
2022-07-29T18:33:28.436Z,22.86
2022-07-29T18:36:10.480Z,22.83
2022-07-29T18:38:39.009Z,22.80
2022-07-29T18:41:05.797Z,22.79
2022-07-29T18:43:32.659Z,22.74
2022-07-29T18:45:59.486Z,22.68
2022-07-29T18:48:26.307Z,22.60
2022-07-29T18:50:53.390Z,22.50
2022-07-29T18:53:20.217Z,22.41
2022-07-29T18:55:47.050Z,22.32
2022-07-29T18:58:13.925Z,22.24
2022-07-29T19:00:41.057Z,22.16
2022-07-29T19:03:08.988Z,22.07
2022-07-29T19:05:35.913Z,21.99
2022-07-29T19:08:02.911Z,21.88
2022-07-29T19:10:30.573Z,21.81
2022-07-29T19:12:58.009Z,21.72
2022-07-29T19:15:25.257Z,21.62
2022-07-29T19:17:52.111Z,21.53
2022-07-29T19:20:18.967Z,21.46
2022-07-29T19:22:46.194Z,21.34
2022-07-29T19:25:13.530Z,21.25
2022-07-29T19:27:42.057Z,21.14
2022-07-29T19:30:09.875Z,21.07
2022-07-29T19:32:37.419Z,21.05
2022-07-29T19:35:21.721Z,21.04
2022-07-29T19:37:48.421Z,21.04
2022-07-29T19:40:16.365Z,21.00
2022-07-29T19:42:44.306Z,20.96
2022-07-29T19:45:11.853Z,20.89
2022-07-29T19:47:38.774Z,20.84
2022-07-29T19:50:06.916Z,20.80
2022-07-29T19:52:33.779Z,20.77
2022-07-29T19:55:06.815Z,20.75
2022-07-29T19:57:40.859Z,20.71
2022-07-29T20:00:11.474Z,20.68
2022-07-29T20:02:40.397Z,20.67
2022-07-29T20:05:08.781Z,20.66
2022-07-29T20:07:36.726Z,20.66
2022-07-29T20:10:05.349Z,20.65
2022-07-29T20:12:32.647Z,20.64
2022-07-29T20:14:59.858Z,20.65
2022-07-29T20:17:27.262Z,20.65
2022-07-29T20:19:54.297Z,20.68
2022-07-29T20:22:22.789Z,20.70
2022-07-29T20:24:49.607Z,20.71
2022-07-29T20:27:16.477Z,20.70
2022-07-29T20:29:43.353Z,20.69
2022-07-29T20:32:12.032Z,20.67
2022-07-29T20:34:41.304Z,20.67
2022-07-29T20:37:13.463Z,20.69
2022-07-29T20:39:42.973Z,20.69
2022-07-29T20:42:09.882Z,20.66
2022-07-29T20:44:36.959Z,20.65
2022-07-29T20:47:03.944Z,20.64
2022-07-29T20:49:31.013Z,20.61
2022-07-29T20:51:58.098Z,20.58
2022-07-29T20:54:24.975Z,20.58
2022-07-29T20:56:51.833Z,20.55
2022-07-29T20:59:18.917Z,20.50
2022-07-29T21:01:46.323Z,20.48
2022-07-29T21:04:13.274Z,20.45
2022-07-29T21:06:40.059Z,20.43
2022-07-29T21:09:06.928Z,20.41
2022-07-29T21:11:44.023Z,20.40
2022-07-29T21:14:28.696Z,20.40
2022-07-29T21:16:55.863Z,20.39
2022-07-29T21:19:22.625Z,20.37
2022-07-29T21:21:49.963Z,20.32
2022-07-29T21:24:16.795Z,20.30
2022-07-29T21:26:47.463Z,20.29
2022-07-29T21:29:18.586Z,20.27
2022-07-29T21:31:45.406Z,20.24
2022-07-29T21:34:12.248Z,20.21
2022-07-29T21:36:54.224Z,20.15
2022-07-29T21:39:21.059Z,20.11
2022-07-29T21:41:48.105Z,20.06
2022-07-29T21:44:14.907Z,20.03
2022-07-29T21:46:41.757Z,20.00
2022-07-29T21:49:08.670Z,20.00
2022-07-29T21:51:35.507Z,19.99
2022-07-29T21:54:03.802Z,19.99
2022-07-29T21:56:31.425Z,19.98
2022-07-29T21:58:58.483Z,19.95
2022-07-29T22:01:25.466Z,19.96
2022-07-29T22:03:52.543Z,19.96
2022-07-29T22:06:19.786Z,19.99
2022-07-29T22:08:48.066Z,20.02
2022-07-29T22:11:15.005Z,20.00
2022-07-29T22:13:42.027Z,20.00
2022-07-29T22:16:10.359Z,19.98
2022-07-29T22:18:37.185Z,19.94
2022-07-29T22:21:04.589Z,19.94
2022-07-29T22:23:31.553Z,19.94
2022-07-29T22:25:58.422Z,19.93
2022-07-29T22:28:25.251Z,19.92
2022-07-29T22:30:52.135Z,19.92
2022-07-29T22:33:18.950Z,19.89
2022-07-29T22:35:48.486Z,19.85
2022-07-29T22:38:17.540Z,19.83
2022-07-29T22:40:44.361Z,19.83
2022-07-29T22:43:11.192Z,19.84
2022-07-29T22:45:38.331Z,19.84
2022-07-29T22:48:06.092Z,19.86
2022-07-29T22:50:33.093Z,19.85
2022-07-29T22:52:59.929Z,19.85
2022-07-29T22:55:26.723Z,19.85
2022-07-29T22:57:53.512Z,19.86
2022-07-29T23:00:20.358Z,19.84
2022-07-29T23:02:47.697Z,19.82
2022-07-29T23:05:15.932Z,19.82
2022-07-29T23:07:43.168Z,19.82
2022-07-29T23:10:10.520Z,19.79
2022-07-29T23:12:37.511Z,19.77
2022-07-29T23:15:06.361Z,19.75
2022-07-29T23:17:36.178Z,19.72
2022-07-29T23:20:07.724Z,19.69
2022-07-29T23:22:36.031Z,19.68
2022-07-29T23:25:05.074Z,19.67
2022-07-29T23:27:32.333Z,19.64
2022-07-29T23:29:59.202Z,19.60
2022-07-29T23:32:25.966Z,19.56
2022-07-29T23:34:52.771Z,19.53
2022-07-29T23:37:19.635Z,19.53
2022-07-29T23:39:46.457Z,19.54
2022-07-29T23:42:13.296Z,19.55
2022-07-29T23:44:40.114Z,19.56
2022-07-29T23:47:06.987Z,19.55
2022-07-29T23:49:33.868Z,19.54
2022-07-29T23:52:00.678Z,19.51
2022-07-29T23:54:27.937Z,19.49
2022-07-29T23:56:56.866Z,19.48
2022-07-29T23:59:24.622Z,19.49
